Time;durP1;ratioP1;P1;durP2;ratioP2;P2;SDS_P1;SDS_P2;PMS_P1;PMS_P2;Temp;Humidity;BMP_temperature;BMP_pressure;BME280_temperature;BME280_humidity;BME280_pressure;Samples;Min_cycle;Max_cycle;Signal;HPM_P1;HPM_P2
2019/07/25 00:02:17;;;;;;;9.4;7;;;;;;;25.29;54.03027;1001.447;;;;
2019/07/25 00:04:40;;;;;;;8.6;7.1;;;;;;;25.36;54.01563;1001.476;;;;
2019/07/25 00:07:06;;;;;;;9.3;7.3;;;;;;;25.26;53.95605;1001.457;;;;
2019/07/25 00:09:31;;;;;;;7.8;7;;;;;;;25.18;54.37207;1001.452;;;;
2019/07/25 00:11:56;;;;;;;9.9;7.5;;;;;;;25.11;55.04883;1001.449;;;;
2019/07/25 00:14:21;;;;;;;9;7.1;;;;;;;25.01;55.12012;1001.47;;;;
2019/07/25 00:16:46;;;;;;;7.9;6.7;;;;;;;24.97;55.22266;1001.437;;;;
2019/07/25 00:19:12;;;;;;;7.8;7;;;;;;;24.99;57.70898;1001.447;;;;
2019/07/25 00:21:37;;;;;;;8.6;7.2;;;;;;;24.79;58.08594;1001.43;;;;
2019/07/25 00:24:02;;;;;;;8.8;7.1;;;;;;;24.52;58.93555;1001.438;;;;
2019/07/25 00:26:27;;;;;;;10;8;;;;;;;24.41;59.20605;1001.401;;;;
2019/07/25 00:28:52;;;;;;;8.5;7.5;;;;;;;24.3;59.23926;1001.414;;;;
2019/07/25 00:31:18;;;;;;;11;7.9;;;;;;;24.2;58.94238;1001.355;;;;
2019/07/25 00:33:43;;;;;;;8.5;7.6;;;;;;;24.09;59.58789;1001.368;;;;
2019/07/25 00:36:08;;;;;;;8;7;;;;;;;24.06;60.0332;1001.422;;;;
2019/07/25 00:38:33;;;;;;;8.8;7.7;;;;;;;23.98;60.60059;1001.375;;;;
2019/07/25 00:40:58;;;;;;;8.1;7.3;;;;;;;24.02;59.89746;1001.37;;;;
2019/07/25 00:43:24;;;;;;;10.6;7.4;;;;;;;23.9;60.25879;1001.404;;;;
2019/07/25 00:45:49;;;;;;;8.8;7.6;;;;;;;23.78;60.24316;1001.419;;;;
2019/07/25 00:48:14;;;;;;;9.3;7.7;;;;;;;23.72;60.9541;1001.439;;;;
2019/07/25 00:50:39;;;;;;;9.2;7.7;;;;;;;23.78;60.4541;1001.416;;;;
2019/07/25 00:53:04;;;;;;;8.3;7.4;;;;;;;23.83;60.99414;1001.416;;;;
2019/07/25 00:55:29;;;;;;;10.2;9.1;;;;;;;23.85;60.47754;1001.428;;;;
2019/07/25 00:57:54;;;;;;;11.4;9.4;;;;;;;23.81;60.49512;1001.442;;;;
2019/07/25 01:00:20;;;;;;;10.6;7.4;;;;;;;23.66;60.12109;1001.418;;;;
2019/07/25 01:02:45;;;;;;;9.3;8.3;;;;;;;23.64;61.13184;1001.39;;;;
2019/07/25 01:05:10;;;;;;;8.6;7.4;;;;;;;23.61;60.98535;1001.401;;;;
2019/07/25 01:07:35;;;;;;;11.1;8.6;;;;;;;23.67;61.23047;1001.455;;;;
2019/07/25 01:10:00;;;;;;;12.3;7.3;;;;;;;23.59;60.12207;1001.432;;;;
2019/07/25 01:12:25;;;;;;;9.5;7.8;;;;;;;23.65;60.34277;1001.425;;;;
2019/07/25 01:14:51;;;;;;;10.4;8.2;;;;;;;23.71;61.03613;1001.44;;;;
2019/07/25 01:17:16;;;;;;;9.1;7.7;;;;;;;23.68;61.24414;1001.447;;;;
2019/07/25 01:19:41;;;;;;;10.8;8.2;;;;;;;23.64;61.49805;1001.468;;;;
2019/07/25 01:22:06;;;;;;;10.7;8.1;;;;;;;23.53;61.93066;1001.458;;;;
2019/07/25 01:24:31;;;;;;;9.1;7.5;;;;;;;23.52;62.11719;1001.472;;;;
2019/07/25 01:26:56;;;;;;;11.2;7.5;;;;;;;23.48;62.125;1001.503;;;;
2019/07/25 01:29:22;;;;;;;8.5;7.6;;;;;;;23.42;62.6582;1001.492;;;;
2019/07/25 01:31:47;;;;;;;10.4;7.7;;;;;;;23.38;62.84082;1001.475;;;;
2019/07/25 01:34:12;;;;;;;10.4;8;;;;;;;23.38;63.12402;1001.516;;;;
2019/07/25 01:36:37;;;;;;;9.7;8.1;;;;;;;23.23;63.49121;1001.5;;;;
2019/07/25 01:39:03;;;;;;;8.2;7.3;;;;;;;23.21;63.67676;1001.557;;;;
2019/07/25 01:41:28;;;;;;;8.4;7.5;;;;;;;23.13;63.60645;1001.598;;;;
2019/07/25 01:43:53;;;;;;;8.5;7.4;;;;;;;23.11;63.81543;1001.593;;;;
2019/07/25 01:46:18;;;;;;;9.3;7.7;;;;;;;23.2;63.62793;1001.573;;;;
2019/07/25 01:48:43;;;;;;;10.4;7.1;;;;;;;23.14;63.80762;1001.574;;;;
2019/07/25 01:51:08;;;;;;;10.4;8.1;;;;;;;23.07;64.30566;1001.627;;;;
2019/07/25 01:53:33;;;;;;;12.4;7.8;;;;;;;23.11;64.10938;1001.615;;;;
2019/07/25 01:55:58;;;;;;;9.8;7.8;;;;;;;23.04;63.61719;1001.562;;;;
2019/07/25 01:58:23;;;;;;;10.8;7.7;;;;;;;22.94;64.46387;1001.539;;;;
2019/07/25 02:00:49;;;;;;;9.7;7.7;;;;;;;23.04;64.34766;1001.545;;;;
2019/07/25 02:03:14;;;;;;;9.2;7.8;;;;;;;22.99;64.54102;1001.539;;;;
2019/07/25 02:05:39;;;;;;;8.8;7.9;;;;;;;22.98;64.64551;1001.56;;;;
2019/07/25 02:08:05;;;;;;;10.1;7.8;;;;;;;22.82;65.01074;1001.499;;;;
2019/07/25 02:10:30;;;;;;;9.8;8;;;;;;;22.83;64.92969;1001.532;;;;
2019/07/25 02:12:55;;;;;;;9.5;7.6;;;;;;;22.77;65.19141;1001.532;;;;
2019/07/25 02:15:20;;;;;;;9.6;8.2;;;;;;;22.8;65.18457;1001.518;;;;
2019/07/25 02:17:45;;;;;;;9.5;8.3;;;;;;;22.6;65.56738;1001.51;;;;
2019/07/25 02:20:10;;;;;;;12.4;7.9;;;;;;;22.62;65.83984;1001.493;;;;
2019/07/25 02:22:35;;;;;;;9.8;7.9;;;;;;;22.68;65.7207;1001.515;;;;
2019/07/25 02:25:01;;;;;;;9.7;7.8;;;;;;;22.68;65.4502;1001.507;;;;
2019/07/25 02:27:26;;;;;;;15.1;13;;;;;;;22.74;65.5166;1001.511;;;;
2019/07/25 02:29:51;;;;;;;11.1;8.7;;;;;;;22.73;65.62305;1001.549;;;;
2019/07/25 02:32:16;;;;;;;9.1;8;;;;;;;22.55;66.03125;1001.501;;;;
2019/07/25 02:34:41;;;;;;;9.7;7.8;;;;;;;22.56;66.00781;1001.556;;;;
2019/07/25 02:37:06;;;;;;;10.2;8.3;;;;;;;22.53;66.22754;1001.546;;;;
2019/07/25 02:39:32;;;;;;;11.3;8.1;;;;;;;22.43;66.50684;1001.565;;;;
2019/07/25 02:41:57;;;;;;;9;8.1;;;;;;;22.44;66.60059;1001.638;;;;
2019/07/25 02:44:22;;;;;;;9.8;8.3;;;;;;;22.53;66.33301;1001.612;;;;
2019/07/25 02:46:47;;;;;;;9.3;7.9;;;;;;;22.56;66.12598;1001.619;;;;
2019/07/25 02:49:12;;;;;;;10.2;8.3;;;;;;;22.48;66.40723;1001.621;;;;
2019/07/25 02:51:37;;;;;;;9.2;8.3;;;;;;;22.29;67.01465;1001.635;;;;
2019/07/25 02:54:03;;;;;;;10.4;8.2;;;;;;;22.29;67.17871;1001.597;;;;
2019/07/25 02:56:28;;;;;;;10.8;8.6;;;;;;;22.3;66.99219;1001.638;;;;
2019/07/25 02:58:53;;;;;;;10.8;8.7;;;;;;;22.27;67.35254;1001.666;;;;
2019/07/25 03:01:18;;;;;;;9;8.1;;;;;;;22.33;67.23242;1001.662;;;;
2019/07/25 03:03:44;;;;;;;9.3;8;;;;;;;22.21;67.56641;1001.679;;;;
2019/07/25 03:06:09;;;;;;;10.3;8.1;;;;;;;22.2;67.58887;1001.661;;;;
2019/07/25 03:08:34;;;;;;;9;8.1;;;;;;;22.05;67.8125;1001.717;;;;
2019/07/25 03:10:59;;;;;;;11.3;8.7;;;;;;;21.89;68.54102;1001.732;;;;
2019/07/25 03:13:24;;;;;;;9.8;8.8;;;;;;;21.89;68.69336;1001.641;;;;
2019/07/25 03:15:50;;;;;;;10.4;8.8;;;;;;;21.95;68.50195;1001.676;;;;
2019/07/25 03:18:15;;;;;;;10.3;8.6;;;;;;;21.83;68.41309;1001.686;;;;
2019/07/25 03:20:40;;;;;;;11.4;8.8;;;;;;;21.87;68.6543;1001.716;;;;
2019/07/25 03:23:05;;;;;;;9.5;8.3;;;;;;;21.99;68.26074;1001.714;;;;
2019/07/25 03:25:31;;;;;;;9.5;8.2;;;;;;;21.99;67.99316;1001.694;;;;
2019/07/25 03:27:56;;;;;;;10.9;8.6;;;;;;;21.98;67.80078;1001.682;;;;
2019/07/25 03:30:21;;;;;;;12.3;8.5;;;;;;;21.92;67.76953;1001.771;;;;
2019/07/25 03:32:46;;;;;;;9.4;7.9;;;;;;;21.96;67.81152;1001.717;;;;
2019/07/25 03:35:11;;;;;;;9.8;7.9;;;;;;;21.81;66.96582;1001.776;;;;
2019/07/25 03:37:36;;;;;;;12.2;8.8;;;;;;;21.89;67.8125;1001.78;;;;
2019/07/25 03:40:02;;;;;;;10.2;8.2;;;;;;;21.91;68.06348;1001.796;;;;
2019/07/25 03:42:27;;;;;;;10.2;8.4;;;;;;;21.88;67.92676;1001.803;;;;
2019/07/25 03:44:52;;;;;;;10.5;8.2;;;;;;;21.84;66.06543;1001.786;;;;
2019/07/25 03:47:17;;;;;;;10.1;8.4;;;;;;;21.85;66.75879;1001.784;;;;
2019/07/25 03:49:42;;;;;;;9.3;8.1;;;;;;;21.89;67.55371;1001.731;;;;
2019/07/25 03:52:07;;;;;;;11.8;8.8;;;;;;;21.94;67.46777;1001.792;;;;
2019/07/25 03:54:32;;;;;;;9.5;8.4;;;;;;;21.98;67.66016;1001.732;;;;
2019/07/25 03:56:58;;;;;;;10.5;8.6;;;;;;;22.02;67.39648;1001.8;;;;
2019/07/25 03:59:23;;;;;;;12.6;8.6;;;;;;;22;67.25293;1001.77;;;;
2019/07/25 04:02:28;;;;;;;12.4;8.9;;;;;;;22.06;67.21582;1001.758;;;;
2019/07/25 04:04:53;;;;;;;9.3;8.2;;;;;;;22.15;66.91211;1001.776;;;;
2019/07/25 04:07:18;;;;;;;10.2;8.2;;;;;;;22.18;66.52734;1001.822;;;;
2019/07/25 04:09:43;;;;;;;9;8.1;;;;;;;22.14;66.7793;1001.845;;;;
2019/07/25 04:12:09;;;;;;;10.7;8.5;;;;;;;22.2;66.67188;1001.873;;;;
2019/07/25 04:14:34;;;;;;;9.4;8.4;;;;;;;22.12;66.78906;1001.815;;;;
2019/07/25 04:17:01;;;;;;;9.7;8.2;;;;;;;22.23;66.39453;1001.864;;;;
2019/07/25 04:19:24;;;;;;;11.8;8.9;;;;;;;22.31;66.04102;1001.9;;;;
2019/07/25 04:21:49;;;;;;;11.6;8.3;;;;;;;22.24;66.21973;1001.926;;;;
2019/07/25 04:24:14;;;;;;;10.8;8;;;;;;;22.25;66.24414;1001.939;;;;
2019/07/25 04:26:39;;;;;;;10.7;8;;;;;;;22.28;66.20117;1001.928;;;;
2019/07/25 04:29:04;;;;;;;12.6;10.4;;;;;;;22.29;66.42676;1001.988;;;;
2019/07/25 04:31:29;;;;;;;11;8.6;;;;;;;22.18;66.375;1002.007;;;;
2019/07/25 04:33:54;;;;;;;10;8.1;;;;;;;22.19;66.49414;1002.055;;;;
2019/07/25 04:36:19;;;;;;;9;8.1;;;;;;;22.29;66.14453;1002.049;;;;
2019/07/25 04:38:45;;;;;;;9.4;8.2;;;;;;;22.46;65.65234;1002.012;;;;
2019/07/25 04:41:10;;;;;;;10.7;7.9;;;;;;;22.47;65.47656;1002.003;;;;
2019/07/25 04:43:35;;;;;;;11;8.4;;;;;;;22.32;65.75;1002.066;;;;
2019/07/25 04:46:00;;;;;;;9.8;8;;;;;;;22.43;65.50684;1002.092;;;;
2019/07/25 04:48:25;;;;;;;9.7;8;;;;;;;22.43;65.29492;1002.112;;;;
2019/07/25 04:50:50;;;;;;;10.9;8.1;;;;;;;22.6;65.16602;1002.135;;;;
2019/07/25 04:53:16;;;;;;;10.8;8.5;;;;;;;22.84;64.48438;1002.167;;;;
2019/07/25 04:55:41;;;;;;;9.8;8;;;;;;;23.04;63.58203;1002.117;;;;
2019/07/25 04:58:06;;;;;;;11.7;8;;;;;;;23.17;63.36523;1002.158;;;;
2019/07/25 05:00:31;;;;;;;10.9;7.9;;;;;;;23.36;62.36719;1002.162;;;;
2019/07/25 05:02:56;;;;;;;9.8;7.9;;;;;;;23.5;61.54883;1002.168;;;;
2019/07/25 05:05:21;;;;;;;9.1;7.8;;;;;;;23.65;60.83691;1002.177;;;;
2019/07/25 05:07:46;;;;;;;8.8;7.4;;;;;;;23.59;60.19336;1002.153;;;;
2019/07/25 05:10:11;;;;;;;10.4;8;;;;;;;23.5;59.46289;1002.137;;;;
2019/07/25 05:12:36;;;;;;;9.8;7.8;;;;;;;23.48;59.50586;1002.175;;;;
2019/07/25 05:15:02;;;;;;;12.3;7.6;;;;;;;23.5;59.49805;1002.128;;;;
2019/07/25 05:17:27;;;;;;;9.9;7.9;;;;;;;23.82;58.59668;1002.127;;;;
2019/07/25 05:19:52;;;;;;;9.9;7.8;;;;;;;23.96;58.03516;1002.122;;;;
2019/07/25 05:22:17;;;;;;;9.7;7.6;;;;;;;24.1;57.71191;1002.123;;;;
2019/07/25 05:24:42;;;;;;;8.9;7.2;;;;;;;24.32;56.85352;1002.179;;;;
2019/07/25 05:27:07;;;;;;;9.9;7.7;;;;;;;24.4;56.0625;1002.168;;;;
2019/07/25 05:29:33;;;;;;;9;7.7;;;;;;;24.49;55.78906;1002.112;;;;
2019/07/25 05:31:58;;;;;;;10.1;8.1;;;;;;;24.56;55.66797;1002.118;;;;
2019/07/25 05:34:23;;;;;;;10;7.4;;;;;;;24.74;54.55469;1002.172;;;;
2019/07/25 05:36:48;;;;;;;8.9;7.3;;;;;;;24.78;53.75586;1002.162;;;;
2019/07/25 05:39:14;;;;;;;12.7;7.6;;;;;;;24.92;53.03906;1002.141;;;;
2019/07/25 05:41:39;;;;;;;10.6;7.5;;;;;;;24.88;53.5791;1002.135;;;;
2019/07/25 05:44:04;;;;;;;9.9;7.7;;;;;;;25.13;52.41309;1002.161;;;;
2019/07/25 05:46:29;;;;;;;9.7;7.3;;;;;;;25.45;52.23633;1002.163;;;;
2019/07/25 05:48:54;;;;;;;11;7.8;;;;;;;25.51;51.4873;1002.167;;;;
2019/07/25 05:51:19;;;;;;;11.9;7.8;;;;;;;25.51;50.82324;1002.198;;;;
2019/07/25 05:53:44;;;;;;;8.6;7.2;;;;;;;25.84;51.10938;1002.274;;;;
2019/07/25 05:56:10;;;;;;;9.5;7.6;;;;;;;26.29;49.42871;1002.298;;;;
2019/07/25 05:58:35;;;;;;;9.3;7.3;;;;;;;26.59;48.47656;1002.301;;;;
2019/07/25 06:01:00;;;;;;;9.4;7;;;;;;;27.02;47.73828;1002.342;;;;
2019/07/25 06:03:25;;;;;;;10.1;7.1;;;;;;;27.23;46.70313;1002.281;;;;
2019/07/25 06:05:50;;;;;;;10.3;7.4;;;;;;;27.47;45.88379;1002.269;;;;
2019/07/25 06:08:15;;;;;;;9.1;7;;;;;;;27.53;45.16406;1002.263;;;;
2019/07/25 06:10:41;;;;;;;8.5;6.8;;;;;;;27.4;45.39941;1002.27;;;;
2019/07/25 06:13:06;;;;;;;8.1;6.8;;;;;;;27.75;45.44727;1002.312;;;;
2019/07/25 06:15:31;;;;;;;9.1;7.3;;;;;;;27.97;43.96973;1002.316;;;;
2019/07/25 06:17:56;;;;;;;17.1;11.1;;;;;;;28.54;43.61914;1002.273;;;;
2019/07/25 06:20:21;;;;;;;10.7;8.2;;;;;;;28.83;42.7168;1002.257;;;;
2019/07/25 06:22:46;;;;;;;10.5;7.5;;;;;;;28.28;44.5127;1002.275;;;;
2019/07/25 06:25:15;;;;;;;10.9;7.1;;;;;;;28.45;43.59863;1002.284;;;;
2019/07/25 06:27:40;;;;;;;9.9;7.2;;;;;;;28.42;44.19141;1002.267;;;;
2019/07/25 06:30:05;;;;;;;9.6;7.4;;;;;;;28.94;43.26367;1002.298;;;;
2019/07/25 06:32:30;;;;;;;12.7;7.2;;;;;;;28.89;41.15918;1002.313;;;;
2019/07/25 06:34:56;;;;;;;8.1;7.2;;;;;;;28.58;41.42871;1002.331;;;;
2019/07/25 06:37:20;;;;;;;9.9;6.8;;;;;;;28.67;42.11719;1002.348;;;;
2019/07/25 06:39:45;;;;;;;9.9;7.1;;;;;;;29.38;41.37109;1002.357;;;;
2019/07/25 06:42:10;;;;;;;10;6.7;;;;;;;29.78;40.67773;1002.375;;;;
2019/07/25 06:44:36;;;;;;;9.2;6.9;;;;;;;29.97;38.9375;1002.373;;;;
2019/07/25 06:47:01;;;;;;;9.7;6.8;;;;;;;30.11;38.31445;1002.369;;;;
2019/07/25 06:49:26;;;;;;;9.6;6.9;;;;;;;30.36;37.15039;1002.392;;;;
2019/07/25 06:51:51;;;;;;;9.6;6.7;;;;;;;30.83;37.21289;1002.449;;;;
2019/07/25 06:54:16;;;;;;;11.3;6.8;;;;;;;31.33;36.63086;1002.463;;;;
2019/07/25 06:56:41;;;;;;;12.3;7.3;;;;;;;31.72;36.85449;1002.44;;;;
2019/07/25 06:59:06;;;;;;;13.3;8.3;;;;;;;32.59;35.62598;1002.384;;;;
2019/07/25 07:01:31;;;;;;;10.1;6.9;;;;;;;33.02;34.76855;1002.354;;;;
2019/07/25 07:03:56;;;;;;;8.8;6.9;;;;;;;34.3;32.33008;1002.324;;;;
2019/07/25 07:06:21;;;;;;;10;6.9;;;;;;;35.66;29.79688;1002.312;;;;
2019/07/25 07:08:47;;;;;;;7.5;6.7;;;;;;;35.7;29.30371;1002.33;;;;
2019/07/25 07:11:12;;;;;;;11.2;6.8;;;;;;;35.41;29.81738;1002.331;;;;
2019/07/25 07:13:37;;;;;;;7.6;6.3;;;;;;;36.37;27.98828;1002.331;;;;
2019/07/25 07:16:02;;;;;;;12.4;6.2;;;;;;;37.1;27.08398;1002.297;;;;
2019/07/25 07:18:27;;;;;;;8.4;7;;;;;;;38.34;25.12305;1002.285;;;;
2019/07/25 07:20:52;;;;;;;7.2;6.5;;;;;;;37.43;26.22852;1002.284;;;;
2019/07/25 07:23:17;;;;;;;14.7;9.3;;;;;;;39.22;24.29199;1002.283;;;;
2019/07/25 07:25:43;;;;;;;8.5;7.4;;;;;;;39.96;23.20605;1002.303;;;;
2019/07/25 07:28:07;;;;;;;8.2;6.4;;;;;;;40.24;22.54785;1002.297;;;;
2019/07/25 07:30:32;;;;;;;10.6;6.4;;;;;;;40.62;22.27148;1002.26;;;;
2019/07/25 07:32:58;;;;;;;7.1;6.4;;;;;;;39.73;22.3877;1002.273;;;;
2019/07/25 07:35:23;;;;;;;7.4;6.2;;;;;;;39.65;22.72656;1002.283;;;;
2019/07/25 07:37:48;;;;;;;6.7;6.1;;;;;;;40.17;21.93164;1002.279;;;;
2019/07/25 07:40:13;;;;;;;8.4;6;;;;;;;39.51;23.03711;1002.237;;;;
2019/07/25 07:42:38;;;;;;;8.6;6.3;;;;;;;39.93;22.97266;1002.27;;;;
2019/07/25 07:45:03;;;;;;;8.6;7;;;;;;;40.92;21.24512;1002.244;;;;
2019/07/25 07:47:28;;;;;;;10.5;6.5;;;;;;;40.5;21.48242;1002.311;;;;
2019/07/25 07:49:53;;;;;;;9;6.8;;;;;;;41.73;20.0918;1002.265;;;;
2019/07/25 07:52:18;;;;;;;7.6;6.4;;;;;;;40.64;21.85645;1002.306;;;;
2019/07/25 07:54:44;;;;;;;8.7;6.5;;;;;;;41.61;20.9209;1002.206;;;;
2019/07/25 07:57:09;;;;;;;8.6;6.4;;;;;;;40.48;22.32617;1002.219;;;;
2019/07/25 07:59:34;;;;;;;7.5;6.2;;;;;;;41.63;21.25293;1002.212;;;;
2019/07/25 08:01:59;;;;;;;8.9;6.4;;;;;;;41.9;20.9209;1002.19;;;;
2019/07/25 08:04:24;;;;;;;9.3;7;;;;;;;41.69;20.02832;1002.185;;;;
2019/07/25 08:06:49;;;;;;;9.2;6.4;;;;;;;41.1;20.62793;1002.193;;;;
2019/07/25 08:09:14;;;;;;;12.8;7.1;;;;;;;40.21;22.1543;1002.168;;;;
2019/07/25 08:11:39;;;;;;;7.9;6.1;;;;;;;39.47;23.70703;1002.11;;;;
2019/07/25 08:14:04;;;;;;;8.9;6.5;;;;;;;40.04;23.13672;1002.143;;;;
2019/07/25 08:16:30;;;;;;;11.1;6.2;;;;;;;39.34;23.93164;1002.115;;;;
2019/07/25 08:18:55;;;;;;;8;6.6;;;;;;;39.85;23.33496;1002.114;;;;
2019/07/25 08:21:20;;;;;;;10.6;6.7;;;;;;;40.57;22.625;1002.054;;;;
2019/07/25 08:23:45;;;;;;;10.1;7.1;;;;;;;40.59;22.33203;1002.08;;;;
2019/07/25 08:26:11;;;;;;;8.2;6.9;;;;;;;39.65;23.77734;1002.091;;;;
2019/07/25 08:28:35;;;;;;;8.1;6.3;;;;;;;39.72;23.76855;1002.021;;;;
2019/07/25 08:31:00;;;;;;;8.9;6.6;;;;;;;40.48;22.79199;1002.015;;;;
2019/07/25 08:33:26;;;;;;;8.9;6.4;;;;;;;40.11;22.78516;1002.042;;;;
2019/07/25 08:35:51;;;;;;;7.9;6.6;;;;;;;39.58;22.73535;1001.981;;;;
2019/07/25 08:38:16;;;;;;;7.2;6.5;;;;;;;39.91;23.3252;1002.02;;;;
2019/07/25 08:40:41;;;;;;;7.8;6.7;;;;;;;40.39;22.9707;1001.975;;;;
2019/07/25 08:43:06;;;;;;;10;6.8;;;;;;;40.6;22.40625;1001.929;;;;
2019/07/25 08:45:32;;;;;;;9.1;6.8;;;;;;;40.68;22.18945;1001.959;;;;
2019/07/25 08:47:57;;;;;;;9.8;7.1;;;;;;;41.13;21.74512;1001.905;;;;
2019/07/25 08:50:22;;;;;;;9.2;6.9;;;;;;;41.97;20.59277;1001.869;;;;
2019/07/25 08:52:47;;;;;;;7.6;6.5;;;;;;;43.33;19.12598;1001.882;;;;
2019/07/25 08:55:12;;;;;;;8.5;6.6;;;;;;;41.88;19.82813;1001.84;;;;
2019/07/25 08:57:37;;;;;;;7.4;6.7;;;;;;;42.24;20.07715;1001.816;;;;
2019/07/25 09:00:02;;;;;;;8.4;6.9;;;;;;;41.4;21.2666;1001.783;;;;
2019/07/25 09:02:31;;;;;;;8.8;6.9;;;;;;;41.16;21.46387;1001.75;;;;
2019/07/25 09:04:55;;;;;;;9;7.6;;;;;;;41.06;21.72949;1001.694;;;;
2019/07/25 09:07:20;;;;;;;10.6;6.9;;;;;;;41.76;20.96484;1001.67;;;;
2019/07/25 09:09:45;;;;;;;8.7;6.9;;;;;;;42.44;20.67578;1001.623;;;;
2019/07/25 09:12:10;;;;;;;7.9;7.1;;;;;;;42.92;20.24121;1001.637;;;;
2019/07/25 09:14:35;;;;;;;7.5;6.7;;;;;;;42.49;21.30469;1001.629;;;;
2019/07/25 09:17:00;;;;;;;9;7.1;;;;;;;42.22;20.92383;1001.605;;;;
2019/07/25 09:19:25;;;;;;;9.8;6.9;;;;;;;41.25;22.2041;1001.597;;;;
2019/07/25 09:21:50;;;;;;;8.5;6.9;;;;;;;42.85;20.47266;1001.56;;;;
2019/07/25 09:24:16;;;;;;;7.8;7;;;;;;;42.65;20.98047;1001.539;;;;
2019/07/25 09:26:41;;;;;;;8.4;7.4;;;;;;;42.46;20.7998;1001.498;;;;
2019/07/25 09:29:06;;;;;;;7.7;6.9;;;;;;;42.79;20.6543;1001.502;;;;
2019/07/25 09:31:31;;;;;;;9.7;7.3;;;;;;;44.19;18.74219;1001.508;;;;
2019/07/25 09:33:56;;;;;;;10.1;6.7;;;;;;;42.88;20.19043;1001.489;;;;
2019/07/25 09:36:21;;;;;;;9;6.6;;;;;;;42.81;20.10156;1001.428;;;;
2019/07/25 09:38:46;;;;;;;10.6;7.2;;;;;;;42.61;20.17871;1001.469;;;;
2019/07/25 09:41:12;;;;;;;10.7;7.3;;;;;;;41.92;20.50488;1001.426;;;;
2019/07/25 09:43:37;;;;;;;7.8;6.6;;;;;;;42.36;20.05762;1001.38;;;;
2019/07/25 09:46:02;;;;;;;10.1;7;;;;;;;42.53;20.02734;1001.432;;;;
2019/07/25 09:48:27;;;;;;;8.7;6.7;;;;;;;42.93;19.57715;1001.39;;;;
2019/07/25 09:50:52;;;;;;;7.2;6.4;;;;;;;43.15;19.2793;1001.375;;;;
2019/07/25 09:53:17;;;;;;;8.8;6.9;;;;;;;42.75;19.5332;1001.348;;;;
2019/07/25 09:55:42;;;;;;;8;7.2;;;;;;;44.04;18.05762;1001.365;;;;
2019/07/25 09:58:07;;;;;;;8.9;7.1;;;;;;;42.58;19.35352;1001.337;;;;
2019/07/25 10:00:32;;;;;;;7.7;6.9;;;;;;;41.67;20.60449;1001.324;;;;
2019/07/25 10:02:58;;;;;;;9.5;7;;;;;;;42.4;19.58008;1001.274;;;;
2019/07/25 10:05:23;;;;;;;8.3;6.8;;;;;;;43.39;19.05566;1001.33;;;;
2019/07/25 10:07:48;;;;;;;7.1;6.2;;;;;;;43.12;18.79785;1001.287;;;;
2019/07/25 10:10:13;;;;;;;8.2;6.9;;;;;;;42.75;19.63184;1001.3;;;;
2019/07/25 10:12:38;;;;;;;10.7;6.7;;;;;;;42.63;19.61426;1001.291;;;;
2019/07/25 10:15:03;;;;;;;10;6.3;;;;;;;41.77;20.69434;1001.263;;;;
2019/07/25 10:17:28;;;;;;;10.4;6.8;;;;;;;41.72;21.33105;1001.288;;;;
2019/07/25 10:19:53;;;;;;;9.4;7.2;;;;;;;41.85;21.42285;1001.28;;;;
2019/07/25 10:22:18;;;;;;;7.7;6.6;;;;;;;41.63;21.22852;1001.258;;;;
2019/07/25 10:24:43;;;;;;;8.9;6.4;;;;;;;42.53;19.80664;1001.201;;;;
2019/07/25 10:27:09;;;;;;;7;6.2;;;;;;;43.13;19.38867;1001.161;;;;
2019/07/25 10:29:34;;;;;;;7.4;6.7;;;;;;;42.75;19.95117;1001.166;;;;
2019/07/25 10:31:59;;;;;;;6.7;6;;;;;;;41.4;20.8623;1001.134;;;;
2019/07/25 10:34:24;;;;;;;7;6.2;;;;;;;41.41;21.52441;1001.09;;;;
2019/07/25 10:36:49;;;;;;;7;6;;;;;;;42.38;20.2793;1001.11;;;;
2019/07/25 10:39:14;;;;;;;6.9;6;;;;;;;42.75;20.07422;1001.103;;;;
2019/07/25 10:41:39;;;;;;;7.7;6.2;;;;;;;41.75;21.18457;1001.044;;;;
2019/07/25 10:44:04;;;;;;;7.4;6.3;;;;;;;40.94;22.2998;1000.99;;;;
2019/07/25 10:46:29;;;;;;;11.5;6.4;;;;;;;39.48;23.88965;1000.948;;;;
2019/07/25 10:48:55;;;;;;;8.2;6.4;;;;;;;39.22;23.7666;1000.946;;;;
2019/07/25 10:51:20;;;;;;;8.7;6.7;;;;;;;38.53;24.82813;1000.834;;;;
2019/07/25 10:53:45;;;;;;;8;6;;;;;;;38.26;25.62988;1000.855;;;;
2019/07/25 10:56:10;;;;;;;7.1;6.4;;;;;;;37.8;26.06738;1000.889;;;;
2019/07/25 10:58:35;;;;;;;7.3;6.3;;;;;;;37.77;25.89453;1000.817;;;;
2019/07/25 11:01:00;;;;;;;8.5;6.2;;;;;;;37.85;25.31543;1000.925;;;;
2019/07/25 11:03:25;;;;;;;6.4;5.6;;;;;;;37.46;25.45117;1000.885;;;;
2019/07/25 11:05:50;;;;;;;6.2;5.3;;;;;;;37.39;24.4873;1000.831;;;;
2019/07/25 11:08:15;;;;;;;7.6;6.1;;;;;;;37.53;26.1123;1000.823;;;;
2019/07/25 11:10:40;;;;;;;6.7;5.7;;;;;;;37.68;24.87988;1000.798;;;;
2019/07/25 11:13:05;;;;;;;8;5.8;;;;;;;37.76;24.55566;1000.775;;;;
2019/07/25 11:15:31;;;;;;;6.7;5.5;;;;;;;38.15;24.42969;1000.752;;;;
2019/07/25 11:17:56;;;;;;;7.7;5.8;;;;;;;38.21;25.20117;1000.707;;;;
2019/07/25 11:20:21;;;;;;;6.7;5.4;;;;;;;37.95;23.27539;1000.72;;;;
2019/07/25 11:22:46;;;;;;;7.7;5.2;;;;;;;38.19;23.32422;1000.699;;;;
2019/07/25 11:25:11;;;;;;;7.2;5.5;;;;;;;38.31;23.42871;1000.626;;;;
2019/07/25 11:27:36;;;;;;;7.2;5.2;;;;;;;38.63;23.11426;1000.633;;;;
2019/07/25 11:30:02;;;;;;;6;5.4;;;;;;;38.38;23.91797;1000.604;;;;
2019/07/25 11:32:27;;;;;;;7.9;6.2;;;;;;;38.1;23.72168;1000.636;;;;
2019/07/25 11:34:52;;;;;;;9.9;6.2;;;;;;;38.09;23.74512;1000.569;;;;
2019/07/25 11:37:17;;;;;;;6.8;5.9;;;;;;;38.43;24.10352;1000.559;;;;
2019/07/25 11:39:42;;;;;;;8.8;6.2;;;;;;;38.18;23.9082;1000.521;;;;
2019/07/25 11:42:07;;;;;;;6.7;6;;;;;;;38.53;24.13379;1000.556;;;;
2019/07/25 11:44:32;;;;;;;8.3;6;;;;;;;38.33;23.86719;1000.496;;;;
2019/07/25 11:46:57;;;;;;;9.2;6.5;;;;;;;38.38;22.39551;1000.472;;;;
2019/07/25 11:49:23;;;;;;;8.9;6.3;;;;;;;38.31;23.29395;1000.45;;;;
2019/07/25 11:51:48;;;;;;;7.3;6.6;;;;;;;38.54;23.15918;1000.426;;;;
2019/07/25 11:54:13;;;;;;;7.1;6.4;;;;;;;38.57;22.4541;1000.418;;;;
2019/07/25 11:56:38;;;;;;;7.5;6.1;;;;;;;38.68;22.62988;1000.399;;;;
2019/07/25 11:59:03;;;;;;;7.3;6.5;;;;;;;38.79;22.61035;1000.351;;;;
2019/07/25 12:01:28;;;;;;;8.6;7.2;;;;;;;39.07;22.36816;1000.335;;;;
2019/07/25 12:03:53;;;;;;;8.5;6.4;;;;;;;39.32;22.08691;1000.304;;;;
2019/07/25 12:06:19;;;;;;;7.6;6.8;;;;;;;39.12;22.5166;1000.343;;;;
2019/07/25 12:08:44;;;;;;;6.9;6.2;;;;;;;38.71;22.82617;1000.279;;;;
2019/07/25 12:11:09;;;;;;;6.9;6.2;;;;;;;38.94;23.10645;1000.222;;;;
2019/07/25 12:13:34;;;;;;;6.9;6.2;;;;;;;39;22.48633;1000.206;;;;
2019/07/25 12:15:59;;;;;;;8.7;6.8;;;;;;;38.75;23.02344;1000.195;;;;
2019/07/25 12:18:24;;;;;;;8.4;6.6;;;;;;;38.75;23.03516;1000.132;;;;
2019/07/25 12:20:49;;;;;;;8.1;6.7;;;;;;;38.5;23.13281;1000.084;;;;
2019/07/25 12:23:14;;;;;;;8.2;6.8;;;;;;;38.76;23.23047;1000.025;;;;
2019/07/25 12:25:41;;;;;;;8.2;6.7;;;;;;;38.69;23.44727;1000.018;;;;
2019/07/25 12:28:05;;;;;;;7.4;6.1;;;;;;;39.05;23.08789;1000.077;;;;
2019/07/25 12:30:37;;;;;;;6.9;6.3;;;;;;;39.13;22.56641;1000.009;;;;
2019/07/25 12:33:01;;;;;;;7.5;6.3;;;;;;;39.24;22.58398;999.9858;;;;
2019/07/25 12:35:26;;;;;;;8.4;6.3;;;;;;;39.03;22.58594;999.9722;;;;
2019/07/25 12:37:51;;;;;;;7.3;6.6;;;;;;;38.91;23.36035;999.9889;;;;
2019/07/25 12:40:16;;;;;;;7.2;6.3;;;;;;;38.69;23.37305;999.9584;;;;
2019/07/25 12:42:44;;;;;;;7.6;6.4;;;;;;;38.69;23.8125;999.9239;;;;
2019/07/25 12:45:07;;;;;;;7;6.3;;;;;;;39.13;23.46973;999.9244;;;;
2019/07/25 12:47:32;;;;;;;8.2;6;;;;;;;38.63;23.65137;999.9547;;;;
2019/07/25 12:49:57;;;;;;;8.5;6.5;;;;;;;38.3;24.07227;999.8413;;;;
2019/07/25 12:52:22;;;;;;;9;6.6;;;;;;;38.3;24.10938;999.9213;;;;
2019/07/25 12:54:48;;;;;;;8.4;6.3;;;;;;;38.16;23.41992;999.7609;;;;
2019/07/25 12:57:14;;;;;;;7.2;6.5;;;;;;;38.36;23.66113;999.8336;;;;
2019/07/25 12:59:38;;;;;;;10.6;6.4;;;;;;;38.42;23.78711;999.7537;;;;
2019/07/25 13:02:05;;;;;;;9.3;5.9;;;;;;;38.43;23.78711;999.7188;;;;
2019/07/25 13:04:28;;;;;;;7.4;6.7;;;;;;;38.13;23.75977;999.7233;;;;
2019/07/25 13:06:54;;;;;;;7.1;6.4;;;;;;;38.23;23.88672;999.6749;;;;
2019/07/25 13:09:20;;;;;;;7.5;6.5;;;;;;;38.46;23.44824;999.668;;;;
2019/07/25 13:11:49;;;;;;;8.3;6.3;;;;;;;38.24;23.53418;999.6382;;;;
2019/07/25 13:14:12;;;;;;;7;6.3;;;;;;;38.39;23.13965;999.6163;;;;
2019/07/25 13:16:42;;;;;;;7.5;6.7;;;;;;;38.3;23.0127;999.5995;;;;
2019/07/25 13:19:06;;;;;;;9;6.9;;;;;;;38.59;22.91797;999.4891;;;;
2019/07/25 13:21:33;;;;;;;6.9;6;;;;;;;38.58;23.36816;999.5494;;;;
2019/07/25 13:23:59;;;;;;;7.5;6.6;;;;;;;38.52;22.91406;999.4723;;;;
2019/07/25 13:26:22;;;;;;;9.2;6.5;;;;;;;38.8;23.09863;999.4489;;;;
2019/07/25 13:28:51;;;;;;;8.6;6.6;;;;;;;38.75;22.01172;999.3864;;;;
2019/07/25 13:31:15;;;;;;;6.8;6.1;;;;;;;38.62;22.3457;999.3686;;;;
2019/07/25 13:33:46;;;;;;;7.9;6;;;;;;;38.79;22.24512;999.3978;;;;
2019/07/25 13:36:06;;;;;;;8.2;6.4;;;;;;;38.68;21.94727;999.3342;;;;
2019/07/25 13:38:31;;;;;;;6.7;6;;;;;;;38.6;22.02832;999.4532;;;;
2019/07/25 13:40:58;;;;;;;7.2;5.9;;;;;;;38.26;22.47559;999.3357;;;;
2019/07/25 13:43:22;;;;;;;7.4;5.8;;;;;;;38.41;21.98242;999.3259;;;;
2019/07/25 13:45:47;;;;;;;6.6;5.9;;;;;;;38.35;21.77246;999.2234;;;;
2019/07/25 13:48:11;;;;;;;6.5;5.6;;;;;;;38.46;21.11914;999.2919;;;;
2019/07/25 13:50:37;;;;;;;6.7;5.6;;;;;;;38.35;20.99316;999.3537;;;;
2019/07/25 13:53:02;;;;;;;8.9;5.9;;;;;;;38.35;20.99316;999.2742;;;;
2019/07/25 13:55:28;;;;;;;8.4;6;;;;;;;38.42;20.78906;999.2327;;;;
2019/07/25 13:57:52;;;;;;;7.3;5.4;;;;;;;38.72;20.75391;999.1992;;;;
2019/07/25 14:00:18;;;;;;;6;5.4;;;;;;;38.8;20.62305;999.1556;;;;
2019/07/25 14:02:42;;;;;;;6.5;5.8;;;;;;;39.03;20.4873;999.1599;;;;
2019/07/25 14:05:08;;;;;;;7.1;5.5;;;;;;;38.85;20.68652;999.1931;;;;
2019/07/25 14:07:33;;;;;;;6.5;5.9;;;;;;;38.51;20.30469;999.1552;;;;
2019/07/25 14:10:00;;;;;;;6.4;5.8;;;;;;;38.39;20.78809;999.1827;;;;
2019/07/25 14:12:25;;;;;;;7.2;5.5;;;;;;;38.51;19.93945;999.0852;;;;